Time,TemperatureF,DewpointF,PressureIn,WindDirection,WindDirectionDegrees,WindSpeedMPH,WindSpeedGustMPH,Humidity,HourlyPrecipIn,Conditions,Clouds,dailyrainin,SolarRadiationWatts/m^2,SoftwareType,DateUTC
2013-01-22 00:00:00,60.6,59.2,30.11,North,350,2.0,4.0,95,0.00,,,0.00,0,Wunderground v.1.15,2013-01-22 10:00:00,
2013-01-22 00:10:00,60.0,58.6,30.11,North,350,3.0,3.0,95,0.00,,,0.00,0,Wunderground v.1.15,2013-01-22 10:10:00,
2013-01-22 00:15:00,60.2,58.8,30.11,North,350,3.0,4.0,95,0.00,,,0.00,0,Wunderground v.1.15,2013-01-22 10:15:00,
2013-01-22 00:20:00,60.3,58.9,30.11,NNW,336,4.0,5.0,95,0.00,,,0.00,0,Wunderground v.1.15,2013-01-22 10:20:00,
2013-01-22 00:25:00,60.8,59.4,30.11,NW,318,4.0,5.0,95,0.00,,,0.00,0,Wunderground v.1.15,2013-01-22 10:25:00,
2013-01-22 00:30:00,61.2,59.8,30.11,NW,320,4.0,4.0,95,0.00,,,0.00,0,Wunderground v.1.15,2013-01-22 10:30:00,
2013-01-22 00:40:00,61.7,60.3,30.11,NW,320,3.0,5.0,95,0.00,,,0.00,0,Wunderground v.1.15,2013-01-22 10:40:00,
2013-01-22 00:45:00,61.9,60.5,30.11,NW,320,3.0,5.0,95,0.00,,,0.00,0,Wunderground v.1.15,2013-01-22 10:45:00,
2013-01-22 00:50:00,62.1,60.4,30.11,NW,320,2.0,2.0,94,0.00,,,0.00,0,Wunderground v.1.15,2013-01-22 10:50:00,
2013-01-22 00:55:00,62.0,60.3,30.11,NW,320,2.0,4.0,94,0.00,,,0.00,0,Wunderground v.1.15,2013-01-22 10:55:00,
2013-01-22 01:00:00,62.0,60.3,30.11,NW,320,2.0,2.0,94,0.00,,,0.00,0,Wunderground v.1.15,2013-01-22 11:00:00,
2013-01-22 01:10:00,61.2,59.5,30.12,NW,320,1.0,1.0,94,0.00,,,0.00,0,Wunderground v.1.15,2013-01-22 11:10:00,
2013-01-22 01:15:00,60.7,59.3,30.12,NNW,336,2.0,2.0,95,0.00,,,0.00,0,Wunderground v.1.15,2013-01-22 11:15:00,
2013-01-22 01:20:00,60.6,59.5,30.12,NNW,336,2.0,3.0,96,0.00,,,0.00,0,Wunderground v.1.15,2013-01-22 11:20:00,
2013-01-22 01:25:00,60.2,59.1,30.12,NNW,336,2.0,3.0,96,0.00,,,0.00,0,Wunderground v.1.15,2013-01-22 11:25:00,
2013-01-22 01:35:00,60.2,59.3,30.11,NNW,336,3.0,5.0,97,0.00,,,0.00,0,Wunderground v.1.15,2013-01-22 11:35:00,
2013-01-22 01:40:00,60.2,59.3,30.11,NNW,336,3.0,5.0,97,0.00,,,0.00,0,Wunderground v.1.15,2013-01-22 11:40:00,
2013-01-22 01:45:00,60.5,59.9,30.11,NNW,336,3.0,5.0,98,0.00,,,0.00,0,Wunderground v.1.15,2013-01-22 11:45:00,
2013-01-22 01:50:00,60.3,59.4,30.11,NNW,337,3.0,4.0,97,0.00,,,0.00,0,Wunderground v.1.15,2013-01-22 11:50:00,
2013-01-22 01:55:00,60.5,59.9,30.11,NW,321,3.0,4.0,98,0.00,,,0.00,0,Wunderground v.1.15,2013-01-22 11:55:00,
2013-01-22 02:00:00,60.4,59.5,30.10,NNW,334,3.0,3.0,97,0.00,,,0.00,0,Wunderground v.1.15,2013-01-22 12:00:00,
2013-01-22 02:10:00,60.0,59.1,30.11,NNW,334,2.0,5.0,97,0.00,,,0.00,0,Wunderground v.1.15,2013-01-22 12:10:00,
2013-01-22 02:15:00,60.0,58.9,30.10,NNW,334,3.0,5.0,96,0.00,,,0.00,0,Wunderground v.1.15,2013-01-22 12:15:00,
2013-01-22 02:20:00,60.1,59.0,30.10,NNW,334,4.0,4.0,96,0.00,,,0.00,0,Wunderground v.1.15,2013-01-22 12:20:00,
2013-01-22 02:25:00,60.1,59.0,30.10,NNW,333,4.0,5.0,96,0.00,,,0.00,0,Wunderground v.1.15,2013-01-22 12:25:00,
2013-01-22 02:30:00,60.3,59.4,30.10,NNW,333,4.0,4.0,97,0.00,,,0.00,0,Wunderground v.1.15,2013-01-22 12:30:00,
2013-01-22 02:40:00,60.6,59.7,30.10,NNW,333,3.0,3.0,97,0.00,,,0.00,0,Wunderground v.1.15,2013-01-22 12:40:00,
2013-01-22 02:45:00,60.8,59.7,30.10,NNW,327,4.0,5.0,96,0.00,,,0.00,0,Wunderground v.1.15,2013-01-22 12:45:00,
2013-01-22 02:55:00,60.9,59.2,30.10,NNW,327,3.0,4.0,94,0.00,,,0.00,0,Wunderground v.1.15,2013-01-22 12:55:00,
2013-01-22 03:00:00,60.7,59.0,30.09,NNW,327,2.0,3.0,94,0.00,,,0.00,0,Wunderground v.1.15,2013-01-22 13:00:00,
2013-01-22 03:10:00,60.5,59.1,30.09,NNW,327,3.0,3.0,95,0.00,,,0.00,0,Wunderground v.1.15,2013-01-22 13:10:00,
2013-01-22 03:15:00,60.2,58.5,30.09,NNW,327,3.0,3.0,94,0.00,,,0.00,0,Wunderground v.1.15,2013-01-22 13:15:00,
2013-01-22 03:25:00,59.5,57.8,30.09,NNW,327,2.0,6.0,94,0.00,,,0.00,0,Wunderground v.1.15,2013-01-22 13:25:00,
2013-01-22 03:30:00,59.8,58.1,30.09,NNW,327,3.0,3.0,94,0.00,,,0.00,0,Wunderground v.1.15,2013-01-22 13:30:00,
2013-01-22 03:35:00,59.7,57.7,30.09,NNW,327,3.0,3.0,93,0.00,,,0.00,0,Wunderground v.1.15,2013-01-22 13:35:00,
2013-01-22 03:40:00,59.4,57.4,30.09,NNW,327,3.0,3.0,93,0.00,,,0.00,0,Wunderground v.1.15,2013-01-22 13:40:00,
2013-01-22 03:45:00,59.0,56.7,30.09,NNW,327,2.0,3.0,92,0.00,,,0.00,0,Wunderground v.1.15,2013-01-22 13:45:00,
2013-01-22 03:55:00,59.2,57.5,30.09,NNW,327,1.0,2.0,94,0.00,,,0.00,0,Wunderground v.1.15,2013-01-22 13:55:00,
2013-01-22 04:00:00,59.1,57.4,30.08,NNW,327,2.0,3.0,94,0.00,,,0.00,0,Wunderground v.1.15,2013-01-22 14:00:00,
2013-01-22 04:10:00,60.1,58.7,30.09,NW,319,2.0,2.0,95,0.00,,,0.00,0,Wunderground v.1.15,2013-01-22 14:10:00,
2013-01-22 04:15:00,60.0,58.3,30.09,NW,320,1.0,2.0,94,0.00,,,0.00,0,Wunderground v.1.15,2013-01-22 14:15:00,
2013-01-22 04:20:00,60.3,58.9,30.08,NW,319,1.0,1.0,95,0.00,,,0.00,0,Wunderground v.1.15,2013-01-22 14:20:00,
2013-01-22 04:25:00,60.6,59.2,30.09,NW,319,2.0,5.0,95,0.00,,,0.00,0,Wunderground v.1.15,2013-01-22 14:25:00,
2013-01-22 04:30:00,60.7,59.0,30.08,NW,319,3.0,3.0,94,0.00,,,0.00,0,Wunderground v.1.15,2013-01-22 14:30:00,
2013-01-22 04:35:00,60.6,58.9,30.08,NW,320,2.0,3.0,94,0.00,,,0.00,0,Wunderground v.1.15,2013-01-22 14:35:00,
2013-01-22 04:40:00,60.1,58.1,30.08,NW,320,2.0,3.0,93,0.00,,,0.00,0,Wunderground v.1.15,2013-01-22 14:40:00,
2013-01-22 04:45:00,59.5,57.5,30.08,NW,320,3.0,4.0,93,0.00,,,0.00,0,Wunderground v.1.15,2013-01-22 14:45:00,
2013-01-22 04:50:00,59.4,57.1,30.08,NW,320,4.0,4.0,92,0.00,,,0.00,0,Wunderground v.1.15,2013-01-22 14:50:00,
2013-01-22 05:00:00,59.1,56.5,30.09,NW,320,3.0,3.0,91,0.00,,,0.00,0,Wunderground v.1.15,2013-01-22 15:00:00,
2013-01-22 05:10:00,58.3,55.7,30.09,NNW,327,3.0,3.0,91,0.00,,,0.00,0,Wunderground v.1.15,2013-01-22 15:10:00,
2013-01-22 05:15:00,58.1,55.2,30.09,NNW,327,4.0,5.0,90,0.00,,,0.00,0,Wunderground v.1.15,2013-01-22 15:15:00,
2013-01-22 05:20:00,58.2,55.0,30.09,NNW,327,4.0,4.0,89,0.00,,,0.00,0,Wunderground v.1.15,2013-01-22 15:20:00,
2013-01-22 05:25:00,58.7,55.2,30.09,NNW,327,3.0,4.0,88,0.00,,,0.00,0,Wunderground v.1.15,2013-01-22 15:25:00,
2013-01-22 05:30:00,58.7,54.8,30.09,NNW,327,3.0,3.0,87,0.00,,,0.00,0,Wunderground v.1.15,2013-01-22 15:30:00,
2013-01-22 05:35:00,58.6,54.7,30.09,NNW,327,3.0,3.0,87,0.00,,,0.00,0,Wunderground v.1.15,2013-01-22 15:35:00,
2013-01-22 05:45:00,58.6,54.7,30.09,NNW,327,2.0,3.0,87,0.00,,,0.00,0,Wunderground v.1.15,2013-01-22 15:45:00,
2013-01-22 05:50:00,58.6,54.4,30.09,NNW,327,2.0,2.0,86,0.00,,,0.00,0,Wunderground v.1.15,2013-01-22 15:50:00,
2013-01-22 05:55:00,58.5,54.3,30.10,NNW,327,1.0,2.0,86,0.00,,,0.00,0,Wunderground v.1.15,2013-01-22 15:55:00,
2013-01-22 06:00:00,58.4,54.5,30.10,NNW,327,0.0,0.0,87,0.00,,,0.00,0,Wunderground v.1.15,2013-01-22 16:00:00,
2013-01-22 06:10:00,57.7,53.9,30.10,NNW,327,1.0,1.0,87,0.00,,,0.00,0,Wunderground v.1.15,2013-01-22 16:10:00,
2013-01-22 06:20:00,57.3,54.1,30.10,NNW,327,2.0,2.0,89,0.00,,,0.00,0,Wunderground v.1.15,2013-01-22 16:20:00,
2013-01-22 06:30:00,57.2,54.3,30.11,NNW,327,2.0,2.0,90,0.00,,,0.00,0,Wunderground v.1.15,2013-01-22 16:30:00,
2013-01-22 06:35:00,57.3,54.7,30.11,NNW,327,3.0,4.0,91,0.00,,,0.00,0,Wunderground v.1.15,2013-01-22 16:35:00,
2013-01-22 06:40:00,57.9,55.3,30.10,NNW,327,3.0,3.0,91,0.00,,,0.00,0,Wunderground v.1.15,2013-01-22 16:40:00,
2013-01-22 06:45:00,59.1,56.2,30.10,NNW,327,3.0,3.0,90,0.00,,,0.00,0,Wunderground v.1.15,2013-01-22 16:45:00,
2013-01-22 06:50:00,59.9,56.3,30.10,NNW,327,3.0,3.0,88,0.00,,,0.00,0,Wunderground v.1.15,2013-01-22 16:50:00,
2013-01-22 06:55:00,60.4,56.2,30.10,NNW,327,3.0,3.0,86,0.00,,,0.00,0,Wunderground v.1.15,2013-01-22 16:55:00,
2013-01-22 07:00:00,60.2,55.7,30.11,NNW,327,2.0,3.0,85,0.00,,,0.00,5,Wunderground v.1.15,2013-01-22 17:00:00,
2013-01-22 07:10:00,58.8,55.3,30.11,NNW,327,2.0,3.0,88,0.00,,,0.00,12,Wunderground v.1.15,2013-01-22 17:10:00,
2013-01-22 07:15:00,58.9,55.4,30.11,NNW,327,3.0,3.0,88,0.00,,,0.00,16,Wunderground v.1.15,2013-01-22 17:15:00,
2013-01-22 07:20:00,59.0,55.1,30.12,NNW,327,3.0,3.0,87,0.00,,,0.00,19,Wunderground v.1.15,2013-01-22 17:20:00,
2013-01-22 07:30:00,59.5,55.6,30.12,NNW,327,2.0,2.0,87,0.00,,,0.00,40,Wunderground v.1.15,2013-01-22 17:30:00,
2013-01-22 07:40:00,60.0,56.1,30.13,NNW,327,2.0,2.0,87,0.00,,,0.00,70,Wunderground v.1.15,2013-01-22 17:40:00,
2013-01-22 07:45:00,60.4,56.8,30.13,NNW,327,1.0,2.0,88,0.00,,,0.00,90,Wunderground v.1.15,2013-01-22 17:45:00,
2013-01-22 07:50:00,60.7,57.4,30.13,NNW,327,1.0,1.0,89,0.00,,,0.00,111,Wunderground v.1.15,2013-01-22 17:50:00,
2013-01-22 07:55:00,61.4,58.1,30.13,NNW,327,1.0,1.0,89,0.00,,,0.00,134,Wunderground v.1.15,2013-01-22 17:55:00,
2013-01-22 08:00:00,61.9,58.9,30.13,NNW,327,1.0,1.0,90,0.00,,,0.00,156,Wunderground v.1.15,2013-01-22 18:00:00,
2013-01-22 08:10:00,63.5,60.5,30.13,NNW,327,0.0,0.0,90,0.00,,,0.00,200,Wunderground v.1.15,2013-01-22 18:10:00,
2013-01-22 08:15:00,64.8,60.8,30.13,WNW,283,0.0,2.0,87,0.00,,,0.00,225,Wunderground v.1.15,2013-01-22 18:15:00,
2013-01-22 08:20:00,66.3,61.7,30.13,WSW,241,2.0,3.0,85,0.00,,,0.00,246,Wunderground v.1.15,2013-01-22 18:20:00,
2013-01-22 08:25:00,67.7,62.7,30.13,SSW,212,3.0,3.0,84,0.00,,,0.00,265,Wunderground v.1.15,2013-01-22 18:25:00,
2013-01-22 08:30:00,68.9,63.2,30.13,SW,214,4.0,6.0,82,0.00,,,0.00,287,Wunderground v.1.15,2013-01-22 18:30:00,
2013-01-22 08:35:00,69.6,63.5,30.13,SW,221,5.0,6.0,81,0.00,,,0.00,304,Wunderground v.1.15,2013-01-22 18:35:00,
2013-01-22 08:40:00,70.1,63.6,30.14,SW,224,4.0,6.0,80,0.00,,,0.00,323,Wunderground v.1.15,2013-01-22 18:40:00,
2013-01-22 08:45:00,70.5,64.0,30.14,SW,215,4.0,7.0,80,0.00,,,0.00,339,Wunderground v.1.15,2013-01-22 18:45:00,
2013-01-22 08:50:00,70.8,64.7,30.13,SW,217,5.0,7.0,81,0.00,,,0.00,359,Wunderground v.1.15,2013-01-22 18:50:00,
2013-01-22 08:55:00,71.0,64.5,30.14,SW,224,6.0,10.0,80,0.00,,,0.00,378,Wunderground v.1.15,2013-01-22 18:55:00,
2013-01-22 09:00:00,71.1,65.0,30.14,SSW,205,7.0,7.0,81,0.00,,,0.00,397,Wunderground v.1.15,2013-01-22 19:00:00,
2013-01-22 09:10:00,71.5,64.6,30.13,SSW,206,6.0,6.0,79,0.00,,,0.00,434,Wunderground v.1.15,2013-01-22 19:10:00,
2013-01-22 09:15:00,71.6,64.7,30.13,SSW,213,8.0,11.0,79,0.00,,,0.00,452,Wunderground v.1.15,2013-01-22 19:15:00,
2013-01-22 09:25:00,71.6,65.1,30.14,South,185,7.0,8.0,80,0.00,,,0.00,485,Wunderground v.1.15,2013-01-22 19:25:00,
2013-01-22 09:30:00,71.7,64.8,30.14,SW,236,7.0,7.0,79,0.00,,,0.00,503,Wunderground v.1.15,2013-01-22 19:30:00,
2013-01-22 09:35:00,72.1,65.2,30.13,South,188,7.0,7.0,79,0.00,,,0.00,520,Wunderground v.1.15,2013-01-22 19:35:00,
2013-01-22 09:40:00,72.2,65.0,30.14,South,174,6.0,9.0,78,0.00,,,0.00,538,Wunderground v.1.15,2013-01-22 19:40:00,
2013-01-22 09:45:00,72.4,64.4,30.13,SSW,197,7.0,9.0,76,0.00,,,0.00,554,Wunderground v.1.15,2013-01-22 19:45:00,
2013-01-22 09:50:00,72.7,65.1,30.14,SW,219,7.0,9.0,77,0.00,,,0.00,568,Wunderground v.1.15,2013-01-22 19:50:00,
2013-01-22 09:55:00,73.0,64.6,30.13,SW,235,7.0,10.0,75,0.00,,,0.00,584,Wunderground v.1.15,2013-01-22 19:55:00,
2013-01-22 10:00:00,73.4,65.4,30.13,SSW,209,8.0,8.0,76,0.00,,,0.00,598,Wunderground v.1.15,2013-01-22 20:00:00,
2013-01-22 10:10:00,73.7,64.9,30.12,SW,215,8.0,8.0,74,0.00,,,0.00,626,Wunderground v.1.15,2013-01-22 20:10:00,
2013-01-22 10:20:00,74.0,64.8,30.13,SW,215,7.0,9.0,73,0.00,,,0.00,654,Wunderground v.1.15,2013-01-22 20:20:00,
2013-01-22 10:25:00,73.8,64.6,30.13,SSW,195,8.0,9.0,73,0.00,,,0.00,664,Wunderground v.1.15,2013-01-22 20:25:00,
2013-01-22 10:30:00,74.0,64.8,30.13,SW,216,8.0,8.0,73,0.00,,,0.00,675,Wunderground v.1.15,2013-01-22 20:30:00,
2013-01-22 10:35:00,74.0,64.8,30.12,SW,217,7.0,8.0,73,0.00,,,0.00,689,Wunderground v.1.15,2013-01-22 20:35:00,
2013-01-22 10:40:00,73.9,64.7,30.13,SW,220,7.0,7.0,73,0.00,,,0.00,705,Wunderground v.1.15,2013-01-22 20:40:00,
2013-01-22 10:45:00,74.1,64.1,30.12,SW,225,7.0,11.0,71,0.00,,,0.00,708,Wunderground v.1.15,2013-01-22 20:45:00,
2013-01-22 10:50:00,74.4,64.4,30.12,SW,217,7.0,7.0,71,0.00,,,0.00,726,Wunderground v.1.15,2013-01-22 20:50:00,
2013-01-22 10:55:00,74.8,65.2,30.11,SSW,213,6.0,11.0,72,0.00,,,0.00,735,Wunderground v.1.15,2013-01-22 20:55:00,
2013-01-22 11:00:00,75.0,65.0,30.11,SSW,192,6.0,6.0,71,0.00,,,0.00,744,Wunderground v.1.15,2013-01-22 21:00:00,
2013-01-22 11:10:00,75.2,63.9,30.11,SSW,206,7.0,7.0,68,0.00,,,0.00,763,Wunderground v.1.15,2013-01-22 21:10:00,
2013-01-22 11:20:00,76.1,64.8,30.11,South,188,7.0,7.0,68,0.00,,,0.00,779,Wunderground v.1.15,2013-01-22 21:20:00,
2013-01-22 11:25:00,76.4,65.1,30.10,SE,139,6.0,7.0,68,0.00,,,0.00,789,Wunderground v.1.15,2013-01-22 21:25:00,
2013-01-22 11:30:00,76.7,64.9,30.10,SSW,211,6.0,13.0,67,0.00,,,0.00,791,Wunderground v.1.15,2013-01-22 21:30:00,
2013-01-22 11:35:00,76.6,66.1,30.10,SSW,213,7.0,13.0,70,0.00,,,0.00,800,Wunderground v.1.15,2013-01-22 21:35:00,
2013-01-22 11:40:00,76.7,66.2,30.10,South,187,8.0,8.0,70,0.00,,,0.00,802,Wunderground v.1.15,2013-01-22 21:40:00,
2013-01-22 11:45:00,76.4,66.7,30.10,South,183,7.0,11.0,72,0.00,,,0.00,810,Wunderground v.1.15,2013-01-22 21:45:00,
2013-01-22 11:50:00,76.4,67.1,30.09,SSE,155,7.0,7.0,73,0.00,,,0.00,814,Wunderground v.1.15,2013-01-22 21:50:00,
2013-01-22 11:55:00,76.4,67.1,30.09,SSW,213,6.0,12.0,73,0.00,,,0.00,817,Wunderground v.1.15,2013-01-22 21:55:00,
2013-01-22 12:00:00,75.8,67.3,30.09,SW,217,8.0,9.0,75,0.00,,,0.00,823,Wunderground v.1.15,2013-01-22 22:00:00,
2013-01-22 12:10:00,75.8,69.2,30.08,SW,216,7.0,7.0,80,0.00,,,0.00,824,Wunderground v.1.15,2013-01-22 22:10:00,
2013-01-22 12:15:00,76.1,68.7,30.08,SSW,209,7.0,7.0,78,0.00,,,0.00,828,Wunderground v.1.15,2013-01-22 22:15:00,
2013-01-22 12:20:00,76.3,67.8,30.08,WSW,242,7.0,7.0,75,0.00,,,0.00,817,Wunderground v.1.15,2013-01-22 22:20:00,
2013-01-22 12:30:00,76.1,67.2,30.08,SSW,213,9.0,9.0,74,0.00,,,0.00,831,Wunderground v.1.15,2013-01-22 22:30:00,
2013-01-22 12:40:00,76.6,68.8,30.07,ESE,115,6.0,6.0,77,0.00,,,0.00,833,Wunderground v.1.15,2013-01-22 22:40:00,
2013-01-22 12:45:00,76.7,68.9,30.07,WSW,243,6.0,7.0,77,0.00,,,0.00,833,Wunderground v.1.15,2013-01-22 22:45:00,
2013-01-22 12:50:00,76.7,68.9,30.07,SW,221,5.0,5.0,77,0.00,,,0.00,835,Wunderground v.1.15,2013-01-22 22:50:00,
2013-01-22 12:55:00,77.1,69.3,30.06,SW,221,3.0,9.0,77,0.00,,,0.00,837,Wunderground v.1.15,2013-01-22 22:55:00,
2013-01-22 13:00:00,76.8,69.0,30.06,SSW,207,5.0,5.0,77,0.00,,,0.00,812,Wunderground v.1.15,2013-01-22 23:00:00,
2013-01-22 13:10:00,77.3,69.5,30.05,SW,217,6.0,9.0,77,0.00,,,0.00,826,Wunderground v.1.15,2013-01-22 23:10:00,
2013-01-22 13:15:00,77.0,69.6,30.06,WSW,252,8.0,11.0,78,0.00,,,0.00,923,Wunderground v.1.15,2013-01-22 23:15:00,
2013-01-22 13:20:00,76.6,69.2,30.06,South,191,7.0,7.0,78,0.00,,,0.00,953,Wunderground v.1.15,2013-01-22 23:20:00,
2013-01-22 13:25:00,76.6,69.6,30.06,SSW,209,6.0,7.0,79,0.00,,,0.00,1000,Wunderground v.1.15,2013-01-22 23:25:00,
2013-01-22 13:30:00,76.5,69.1,30.06,SW,232,6.0,6.0,78,0.00,,,0.00,888,Wunderground v.1.15,2013-01-22 23:30:00,
2013-01-22 13:35:00,76.6,69.6,30.05,SW,221,6.0,9.0,79,0.00,,,0.00,942,Wunderground v.1.15,2013-01-22 23:35:00,
2013-01-22 13:40:00,76.6,68.8,30.05,WNW,299,5.0,6.0,77,0.00,,,0.00,687,Wunderground v.1.15,2013-01-22 23:40:00,
2013-01-22 13:45:00,76.5,69.5,30.04,SW,221,5.0,9.0,79,0.00,,,0.00,246,Wunderground v.1.15,2013-01-22 23:45:00,
2013-01-22 13:50:00,76.3,69.3,30.04,NNW,334,5.0,5.0,79,0.00,,,0.00,585,Wunderground v.1.15,2013-01-22 23:50:00,
2013-01-22 13:55:00,76.5,69.1,30.04,East,88,4.0,7.0,78,0.00,,,0.00,309,Wunderground v.1.15,2013-01-22 23:55:00,
2013-01-22 14:00:00,76.4,69.8,30.04,ENE,66,5.0,10.0,80,0.00,,,0.00,397,Wunderground v.1.15,2013-01-23 00:00:00,
2013-01-22 14:10:00,76.0,68.6,30.04,SSE,147,6.0,6.0,78,0.00,,,0.00,250,Wunderground v.1.15,2013-01-23 00:10:00,
2013-01-22 14:15:00,75.9,68.9,30.04,SSE,150,5.0,7.0,79,0.00,,,0.00,206,Wunderground v.1.15,2013-01-23 00:15:00,
2013-01-22 14:20:00,75.5,68.9,30.04,South,176,5.0,5.0,80,0.00,,,0.00,246,Wunderground v.1.15,2013-01-23 00:20:00,
2013-01-22 14:25:00,75.5,69.3,30.03,SSW,204,4.0,7.0,81,0.00,,,0.00,865,Wunderground v.1.15,2013-01-23 00:25:00,
2013-01-22 14:30:00,75.4,69.2,30.03,SSW,209,5.0,11.0,81,0.00,,,0.00,793,Wunderground v.1.15,2013-01-23 00:30:00,
2013-01-22 14:40:00,75.5,68.9,30.03,SSW,211,7.0,7.0,80,0.00,,,0.00,657,Wunderground v.1.15,2013-01-23 00:40:00,
2013-01-22 14:45:00,75.6,69.0,30.03,South,175,6.0,7.0,80,0.00,,,0.00,260,Wunderground v.1.15,2013-01-23 00:45:00,
2013-01-22 14:50:00,75.9,69.3,30.03,South,180,5.0,5.0,80,0.00,,,0.00,670,Wunderground v.1.15,2013-01-23 00:50:00,
2013-01-22 15:00:00,75.7,68.7,30.03,SW,215,7.0,7.0,79,0.00,,,0.00,673,Wunderground v.1.15,2013-01-23 01:00:00,
2013-01-22 15:10:00,76.2,69.2,30.03,SW,235,6.0,6.0,79,0.00,,,0.00,190,Wunderground v.1.15,2013-01-23 01:10:00,
2013-01-22 15:15:00,76.0,68.6,30.03,SW,229,6.0,6.0,78,0.00,,,0.00,643,Wunderground v.1.15,2013-01-23 01:15:00,
2013-01-22 15:20:00,76.0,69.0,30.03,West,273,6.0,6.0,79,0.00,,,0.00,487,Wunderground v.1.15,2013-01-23 01:20:00,
2013-01-22 15:25:00,75.9,68.9,30.03,SW,225,6.0,6.0,79,0.00,,,0.00,587,Wunderground v.1.15,2013-01-23 01:25:00,
2013-01-22 15:30:00,75.9,68.9,30.03,South,177,6.0,6.0,79,0.00,,,0.00,253,Wunderground v.1.15,2013-01-23 01:30:00,
2013-01-22 15:35:00,75.9,68.5,30.03,SSW,192,5.0,6.0,78,0.00,,,0.00,519,Wunderground v.1.15,2013-01-23 01:35:00,
2013-01-22 15:40:00,75.6,68.6,30.03,South,178,5.0,5.0,79,0.00,,,0.00,490,Wunderground v.1.15,2013-01-23 01:40:00,
2013-01-22 15:50:00,75.4,68.4,30.03,SSE,160,4.0,4.0,79,0.00,,,0.00,489,Wunderground v.1.15,2013-01-23 01:50:00,
2013-01-22 15:55:00,75.3,68.7,30.03,SSE,155,5.0,5.0,80,0.00,,,0.00,464,Wunderground v.1.15,2013-01-23 01:55:00,
2013-01-22 16:00:00,75.3,68.3,30.03,South,188,4.0,4.0,79,0.00,,,0.00,445,Wunderground v.1.15,2013-01-23 02:00:00,
2013-01-22 16:10:00,75.4,68.4,30.03,SSE,152,4.0,6.0,79,0.00,,,0.00,404,Wunderground v.1.15,2013-01-23 02:10:00,
2013-01-22 16:15:00,75.6,68.6,30.03,SSW,200,4.0,6.0,79,0.00,,,0.00,376,Wunderground v.1.15,2013-01-23 02:15:00,
2013-01-22 16:20:00,75.4,68.1,30.03,SSW,213,6.0,6.0,78,0.00,,,0.00,360,Wunderground v.1.15,2013-01-23 02:20:00,
2013-01-22 16:30:00,74.6,68.0,30.03,SW,224,6.0,10.0,80,0.00,,,0.00,83,Wunderground v.1.15,2013-01-23 02:30:00,
2013-01-22 16:35:00,74.1,67.9,30.04,SSW,212,6.0,10.0,81,0.00,,,0.00,84,Wunderground v.1.15,2013-01-23 02:35:00,
2013-01-22 16:40:00,73.5,68.0,30.04,SSW,200,7.0,7.0,83,0.00,,,0.00,111,Wunderground v.1.15,2013-01-23 02:40:00,
2013-01-22 16:45:00,73.1,68.0,30.04,SSW,206,7.0,7.0,84,0.00,,,0.00,135,Wunderground v.1.15,2013-01-23 02:45:00,
2013-01-22 16:50:00,72.9,68.1,30.04,SW,230,6.0,6.0,85,0.00,,,0.00,243,Wunderground v.1.15,2013-01-23 02:50:00,
2013-01-22 16:55:00,72.8,67.7,30.04,SW,233,7.0,8.0,84,0.00,,,0.00,207,Wunderground v.1.15,2013-01-23 02:55:00,
2013-01-22 17:00:00,72.8,67.7,30.04,SSW,210,8.0,8.0,84,0.00,,,0.00,190,Wunderground v.1.15,2013-01-23 03:00:00,
2013-01-22 17:10:00,72.7,67.6,30.04,WSW,238,7.0,7.0,84,0.00,,,0.00,149,Wunderground v.1.15,2013-01-23 03:10:00,
2013-01-22 17:15:00,72.8,67.3,30.04,SW,234,7.0,7.0,83,0.00,,,0.00,128,Wunderground v.1.15,2013-01-23 03:15:00,
2013-01-22 17:20:00,72.8,67.7,30.03,SSW,198,7.0,7.0,84,0.00,,,0.00,98,Wunderground v.1.15,2013-01-23 03:20:00,
2013-01-22 17:30:00,72.4,67.6,30.04,WSW,241,8.0,8.0,85,0.00,,,0.00,65,Wunderground v.1.15,2013-01-23 03:30:00,
2013-01-22 17:35:00,72.1,67.3,30.03,WSW,250,7.0,11.0,85,0.00,,,0.00,51,Wunderground v.1.15,2013-01-23 03:35:00,
2013-01-22 17:40:00,71.6,67.2,30.03,West,260,7.0,7.0,86,0.00,,,0.00,30,Wunderground v.1.15,2013-01-23 03:40:00,
2013-01-22 17:45:00,71.3,66.9,30.04,WSW,249,7.0,7.0,86,0.00,,,0.00,25,Wunderground v.1.15,2013-01-23 03:45:00,
2013-01-22 17:55:00,70.8,66.7,30.04,WSW,250,6.0,6.0,87,0.00,,,0.00,14,Wunderground v.1.15,2013-01-23 03:55:00,
2013-01-22 18:00:00,70.6,66.9,30.04,WSW,253,6.0,10.0,88,0.00,,,0.00,11,Wunderground v.1.15,2013-01-23 04:00:00,
2013-01-22 18:10:00,70.2,66.5,30.04,WSW,254,8.0,8.0,88,0.00,,,0.00,0,Wunderground v.1.15,2013-01-23 04:10:00,
2013-01-22 18:15:00,70.0,66.3,30.04,SW,232,7.0,8.0,88,0.00,,,0.00,0,Wunderground v.1.15,2013-01-23 04:15:00,
2013-01-22 18:20:00,69.9,66.5,30.05,WSW,252,7.0,7.0,89,0.00,,,0.00,0,Wunderground v.1.15,2013-01-23 04:20:00,
2013-01-22 18:30:00,69.6,66.2,30.05,WSW,255,7.0,8.0,89,0.00,,,0.00,0,Wunderground v.1.15,2013-01-23 04:30:00,
2013-01-22 18:35:00,69.6,66.2,30.05,West,261,8.0,12.0,89,0.00,,,0.00,0,Wunderground v.1.15,2013-01-23 04:35:00,
2013-01-22 18:40:00,69.5,66.1,30.05,WSW,250,8.0,8.0,89,0.00,,,0.00,0,Wunderground v.1.15,2013-01-23 04:40:00,
2013-01-22 18:45:00,69.4,66.0,30.05,West,266,7.0,8.0,89,0.00,,,0.00,0,Wunderground v.1.15,2013-01-23 04:45:00,
2013-01-22 18:50:00,69.4,66.0,30.05,WSW,244,8.0,8.0,89,0.00,,,0.00,0,Wunderground v.1.15,2013-01-23 04:50:00,
2013-01-22 18:55:00,69.3,65.9,30.05,WSW,239,8.0,11.0,89,0.00,,,0.00,0,Wunderground v.1.15,2013-01-23 04:55:00,
2013-01-22 19:01:00,69.4,66.0,30.05,WSW,244,9.0,9.0,89,0.00,,,0.00,0,Wunderground v.1.15,2013-01-23 05:01:00,
2013-01-22 19:10:00,69.3,65.9,30.06,WSW,251,8.0,8.0,89,0.00,,,0.00,0,Wunderground v.1.15,2013-01-23 05:10:00,
2013-01-22 19:15:00,69.3,65.9,30.06,West,263,8.0,8.0,89,0.00,,,0.00,0,Wunderground v.1.15,2013-01-23 05:15:00,
2013-01-22 19:20:00,69.3,65.9,30.06,WSW,245,7.0,7.0,89,0.00,,,0.00,0,Wunderground v.1.15,2013-01-23 05:20:00,
2013-01-22 19:25:00,69.3,65.9,30.06,West,273,7.0,7.0,89,0.00,,,0.00,0,Wunderground v.1.15,2013-01-23 05:25:00,
2013-01-22 19:35:00,69.1,65.7,30.06,West,269,6.0,6.0,89,0.00,,,0.00,0,Wunderground v.1.15,2013-01-23 05:35:00,
2013-01-22 19:40:00,69.0,65.6,30.06,WSW,241,5.0,5.0,89,0.00,,,0.00,0,Wunderground v.1.15,2013-01-23 05:40:00,
2013-01-22 19:45:00,68.9,65.5,30.06,WSW,256,5.0,5.0,89,0.00,,,0.00,0,Wunderground v.1.15,2013-01-23 05:45:00,
2013-01-22 19:50:00,68.8,65.4,30.07,WSW,252,4.0,5.0,89,0.00,,,0.00,0,Wunderground v.1.15,2013-01-23 05:50:00,
2013-01-22 20:00:00,68.7,65.6,30.07,WSW,254,4.0,6.0,90,0.00,,,0.00,0,Wunderground v.1.15,2013-01-23 06:00:00,
2013-01-22 20:10:00,68.9,65.8,30.07,WSW,244,6.0,6.0,90,0.00,,,0.00,0,Wunderground v.1.15,2013-01-23 06:10:00,
2013-01-22 20:15:00,68.9,65.8,30.07,WSW,252,5.0,6.0,90,0.00,,,0.00,0,Wunderground v.1.15,2013-01-23 06:15:00,
2013-01-22 20:20:00,68.8,65.7,30.07,West,265,5.0,5.0,90,0.00,,,0.00,0,Wunderground v.1.15,2013-01-23 06:20:00,
2013-01-22 20:25:00,68.7,65.6,30.07,West,262,4.0,5.0,90,0.00,,,0.00,0,Wunderground v.1.15,2013-01-23 06:25:00,
2013-01-22 20:30:00,68.7,65.6,30.07,WSW,246,4.0,4.0,90,0.00,,,0.00,0,Wunderground v.1.15,2013-01-23 06:30:00,
2013-01-22 20:35:00,68.5,65.4,30.07,West,261,4.0,4.0,90,0.00,,,0.00,0,Wunderground v.1.15,2013-01-23 06:35:00,
2013-01-22 20:40:00,68.4,65.7,30.07,WSW,243,4.0,4.0,91,0.00,,,0.00,0,Wunderground v.1.15,2013-01-23 06:40:00,
2013-01-22 20:45:00,68.3,65.3,30.07,West,259,3.0,4.0,90,0.00,,,0.00,0,Wunderground v.1.15,2013-01-23 06:45:00,
2013-01-22 20:50:00,68.1,65.1,30.07,WSW,251,4.0,4.0,90,0.00,,,0.00,0,Wunderground v.1.15,2013-01-23 06:50:00,
2013-01-22 20:55:00,68.1,65.4,30.07,West,265,5.0,5.0,91,0.00,,,0.00,0,Wunderground v.1.15,2013-01-23 06:55:00,
2013-01-22 21:00:00,68.1,65.4,30.07,West,268,5.0,5.0,91,0.00,,,0.00,0,Wunderground v.1.15,2013-01-23 07:00:00,
2013-01-22 21:10:00,68.0,65.3,30.08,WNW,285,4.0,4.0,91,0.00,,,0.00,0,Wunderground v.1.15,2013-01-23 07:10:00,
2013-01-22 21:15:00,68.0,65.3,30.07,West,270,4.0,4.0,91,0.00,,,0.00,0,Wunderground v.1.15,2013-01-23 07:15:00,
2013-01-22 21:20:00,67.9,65.2,30.07,WNW,288,3.0,3.0,91,0.00,,,0.00,0,Wunderground v.1.15,2013-01-23 07:20:00,
2013-01-22 21:25:00,67.7,65.0,30.07,WNW,288,3.0,3.0,91,0.00,,,0.00,0,Wunderground v.1.15,2013-01-23 07:25:00,
2013-01-22 21:30:00,67.5,64.8,30.08,WNW,288,3.0,4.0,91,0.00,,,0.00,0,Wunderground v.1.15,2013-01-23 07:30:00,
2013-01-22 21:35:00,67.3,64.9,30.08,WNW,288,3.0,4.0,92,0.00,,,0.00,0,Wunderground v.1.15,2013-01-23 07:35:00,
2013-01-22 21:40:00,67.1,64.7,30.08,WNW,290,4.0,4.0,92,0.00,,,0.00,0,Wunderground v.1.15,2013-01-23 07:40:00,
2013-01-22 21:45:00,66.8,64.4,30.08,WNW,294,3.0,4.0,92,0.00,,,0.00,0,Wunderground v.1.15,2013-01-23 07:45:00,
2013-01-22 21:55:00,66.6,64.5,30.08,WNW,299,2.0,3.0,93,0.00,,,0.00,0,Wunderground v.1.15,2013-01-23 07:55:00,
2013-01-22 22:00:00,66.5,64.4,30.08,WNW,301,2.0,3.0,93,0.00,,,0.00,0,Wunderground v.1.15,2013-01-23 08:00:00,
2013-01-22 22:10:00,66.5,64.4,30.08,WNW,300,2.0,2.0,93,0.00,,,0.00,0,Wunderground v.1.15,2013-01-23 08:10:00,
2013-01-22 22:15:00,66.5,64.4,30.08,WNW,300,2.0,2.0,93,0.00,,,0.00,0,Wunderground v.1.15,2013-01-23 08:15:00,
2013-01-22 22:25:00,66.2,64.1,30.08,WNW,300,2.0,2.0,93,0.00,,,0.00,0,Wunderground v.1.15,2013-01-23 08:25:00,
2013-01-22 22:30:00,65.9,63.8,30.08,WNW,300,2.0,2.0,93,0.00,,,0.00,0,Wunderground v.1.15,2013-01-23 08:30:00,
2013-01-22 22:35:00,65.7,63.3,30.08,WNW,301,2.0,2.0,92,0.00,,,0.00,0,Wunderground v.1.15,2013-01-23 08:35:00,
2013-01-22 22:45:00,65.2,63.1,30.07,WNW,301,2.0,4.0,93,0.00,,,0.00,0,Wunderground v.1.15,2013-01-23 08:45:00,
2013-01-22 22:50:00,65.0,62.9,30.07,NW,307,3.0,3.0,93,0.00,,,0.00,0,Wunderground v.1.15,2013-01-23 08:50:00,
2013-01-22 22:55:00,64.7,62.6,30.07,NW,307,2.0,3.0,93,0.00,,,0.00,0,Wunderground v.1.15,2013-01-23 08:55:00,
2013-01-22 23:00:00,64.5,62.4,30.07,NW,307,2.0,2.0,93,0.00,,,0.00,0,Wunderground v.1.15,2013-01-23 09:00:00,
2013-01-22 23:05:00,64.4,62.3,30.07,NW,307,2.0,2.0,93,0.00,,,0.00,0,Wunderground v.1.15,2013-01-23 09:05:00,
2013-01-22 23:15:00,64.4,62.6,30.07,NW,307,2.0,2.0,94,0.00,,,0.00,0,Wunderground v.1.15,2013-01-23 09:15:00,
2013-01-22 23:20:00,64.4,62.6,30.07,NW,307,2.0,2.0,94,0.00,,,0.00,0,Wunderground v.1.15,2013-01-23 09:20:00,
2013-01-22 23:25:00,64.3,62.5,30.06,NW,307,1.0,2.0,94,0.00,,,0.00,0,Wunderground v.1.15,2013-01-23 09:25:00,
2013-01-22 23:35:00,64.4,62.6,30.07,NW,307,3.0,4.0,94,0.00,,,0.00,0,Wunderground v.1.15,2013-01-23 09:35:00,
2013-01-22 23:40:00,64.4,62.6,30.06,NW,307,2.0,3.0,94,0.00,,,0.00,0,Wunderground v.1.15,2013-01-23 09:40:00,
2013-01-22 23:45:00,64.4,62.6,30.07,NW,307,3.0,3.0,94,0.00,,,0.00,0,Wunderground v.1.15,2013-01-23 09:45:00,
2013-01-22 23:50:00,64.4,62.3,30.06,NW,307,3.0,3.0,93,0.00,,,0.00,0,Wunderground v.1.15,2013-01-23 09:50:00,
2013-01-22 23:55:00,64.3,62.2,30.06,NW,307,3.0,4.0,93,0.00,,,0.00,0,Wunderground v.1.15,2013-01-23 09:55:00,